Time;durP1;ratioP1;P1;durP2;ratioP2;P2;SDS_P1;SDS_P2;PMS_P1;PMS_P2;Temp;Humidity;BMP_temperature;BMP_pressure;BME280_temperature;BME280_humidity;BME280_pressure;Samples;Min_cycle;Max_cycle;Signal;HPM_P1;HPM_P2
2021/10/19 00:02:40;;;;;;;3.55;3.25;;;;;;;19.69;62.37;101237.37;;;;-54
2021/10/19 00:05:40;;;;;;;3.51;3.21;;;;;;;19.69;62.36;101242.46;;;;-57
2021/10/19 00:08:40;;;;;;;3.66;3.35;;;;;;;19.68;62.31;101235.30;;;;-57
2021/10/19 00:11:40;;;;;;;3.92;3.44;;;;;;;19.66;62.39;101229.49;;;;-56
2021/10/19 00:14:40;;;;;;;3.67;3.37;;;;;;;19.66;62.34;101222.58;;;;-55
2021/10/19 00:17:40;;;;;;;4.29;3.89;;;;;;;19.65;62.35;101215.88;;;;-58
2021/10/19 00:20:40;;;;;;;3.75;3.45;;;;;;;19.64;62.43;101214.33;;;;-59
2021/10/19 00:23:40;;;;;;;3.65;3.35;;;;;;;19.63;62.43;101221.94;;;;-59
2021/10/19 00:26:40;;;;;;;3.51;3.21;;;;;;;19.63;62.39;101221.53;;;;-58
2021/10/19 00:29:40;;;;;;;3.68;3.35;;;;;;;19.61;62.40;101202.22;;;;-59
2021/10/19 00:32:40;;;;;;;3.61;3.31;;;;;;;19.61;62.38;101199.13;;;;-59
2021/10/19 00:35:40;;;;;;;3.83;3.43;;;;;;;19.60;62.41;101204.17;;;;-59
2021/10/19 00:38:40;;;;;;;3.43;3.13;;;;;;;19.59;62.40;101204.95;;;;-59
2021/10/19 00:41:40;;;;;;;3.93;3.53;;;;;;;19.57;62.43;101206.57;;;;-59
2021/10/19 00:44:40;;;;;;;3.36;3.06;;;;;;;19.58;62.45;101214.05;;;;-59
2021/10/19 00:47:47;;;;;;;3.61;3.31;;;;;;;19.56;62.43;101223.37;;;;-59
2021/10/19 00:50:40;;;;;;;3.45;3.15;;;;;;;19.57;62.42;101237.71;;;;-58
2021/10/19 00:53:40;;;;;;;3.74;3.44;;;;;;;19.56;62.49;101250.84;;;;-59
2021/10/19 00:56:41;;;;;;;3.59;3.29;;;;;;;19.54;62.46;101249.75;;;;-58
2021/10/19 00:59:40;;;;;;;3.73;3.41;;;;;;;19.54;62.46;101252.44;;;;-58
2021/10/19 01:02:43;;;;;;;3.89;3.49;;;;;;;19.54;62.45;101246.91;;;;-59
2021/10/19 01:05:40;;;;;;;3.59;3.29;;;;;;;19.53;62.47;101252.68;;;;-59
2021/10/19 01:08:40;;;;;;;3.61;3.31;;;;;;;19.52;62.44;101248.01;;;;-60
2021/10/19 01:11:40;;;;;;;3.64;3.34;;;;;;;19.52;62.50;101246.46;;;;-59
2021/10/19 01:14:40;;;;;;;3.36;3.06;;;;;;;19.50;62.43;101229.27;;;;-60
2021/10/19 01:17:40;;;;;;;3.43;3.13;;;;;;;19.50;62.50;101224.72;;;;-59
2021/10/19 01:20:41;;;;;;;3.46;3.16;;;;;;;19.49;62.49;101227.31;;;;-55
2021/10/19 01:23:40;;;;;;;3.50;3.20;;;;;;;19.48;62.49;101231.52;;;;-56
2021/10/19 01:26:40;;;;;;;3.49;3.19;;;;;;;19.48;62.49;101227.36;;;;-57
2021/10/19 01:29:40;;;;;;;3.33;3.03;;;;;;;19.48;62.49;101226.63;;;;-57
2021/10/19 01:32:40;;;;;;;3.30;3.00;;;;;;;19.47;62.50;101228.91;;;;-58
2021/10/19 01:35:40;;;;;;;3.81;3.47;;;;;;;19.46;62.49;101226.02;;;;-57
2021/10/19 01:38:40;;;;;;;3.58;3.28;;;;;;;19.46;62.47;101224.08;;;;-56
2021/10/19 01:41:41;;;;;;;4.66;3.29;;;;;;;19.44;62.50;101219.84;;;;-55
2021/10/19 01:44:40;;;;;;;3.47;3.17;;;;;;;19.44;62.54;101234.11;;;;-59
2021/10/19 01:47:40;;;;;;;3.47;3.17;;;;;;;19.43;62.54;101234.76;;;;-59
2021/10/19 01:50:40;;;;;;;3.65;3.30;;;;;;;19.43;62.50;101218.09;;;;-59
2021/10/19 01:53:40;;;;;;;3.38;3.08;;;;;;;19.42;62.49;101218.34;;;;-58
2021/10/19 01:56:40;;;;;;;3.53;3.23;;;;;;;19.41;62.51;101215.45;;;;-58
2021/10/19 01:59:40;;;;;;;3.50;3.20;;;;;;;19.41;62.57;101209.13;;;;-59
2021/10/19 02:02:40;;;;;;;3.47;3.17;;;;;;;19.39;62.56;101198.11;;;;-58
2021/10/19 02:05:40;;;;;;;3.21;2.91;;;;;;;19.39;62.50;101200.30;;;;-58
2021/10/19 02:08:40;;;;;;;3.51;3.21;;;;;;;19.37;62.55;101195.71;;;;-58
2021/10/19 02:11:40;;;;;;;3.50;3.20;;;;;;;19.37;62.59;101191.16;;;;-58
2021/10/19 02:14:40;;;;;;;3.59;3.29;;;;;;;19.37;62.53;101191.81;;;;-55
2021/10/19 02:17:40;;;;;;;3.63;3.33;;;;;;;19.38;62.53;101189.08;;;;-55
2021/10/19 02:20:40;;;;;;;3.40;3.10;;;;;;;19.36;62.52;101184.66;;;;-57
2021/10/19 02:23:40;;;;;;;3.41;3.11;;;;;;;19.35;62.60;101186.09;;;;-58
2021/10/19 02:26:40;;;;;;;3.38;3.08;;;;;;;19.35;62.62;101186.33;;;;-56
2021/10/19 02:29:40;;;;;;;3.45;3.15;;;;;;;19.34;62.58;101187.55;;;;-57
2021/10/19 02:32:40;;;;;;;3.56;3.24;;;;;;;19.35;62.60;101187.79;;;;-59
2021/10/19 02:35:40;;;;;;;3.30;3.00;;;;;;;19.34;62.60;101184.83;;;;-59
2021/10/19 02:38:40;;;;;;;3.39;3.09;;;;;;;19.33;62.61;101174.67;;;;-59
2021/10/19 02:41:40;;;;;;;3.41;3.11;;;;;;;19.32;62.65;101176.37;;;;-59
2021/10/19 02:44:40;;;;;;;3.18;2.88;;;;;;;19.32;62.62;101182.71;;;;-58
2021/10/19 02:47:41;;;;;;;3.30;3.00;;;;;;;19.32;62.64;101184.34;;;;-60
2021/10/19 02:50:40;;;;;;;3.10;2.80;;;;;;;19.31;62.64;101180.97;;;;-59
2021/10/19 02:53:40;;;;;;;3.29;2.99;;;;;;;19.31;62.64;101181.38;;;;-54
2021/10/19 02:56:40;;;;;;;3.25;2.95;;;;;;;19.30;62.68;101174.38;;;;-57
2021/10/19 02:59:40;;;;;;;3.18;2.94;;;;;;;19.29;62.63;101170.20;;;;-56
2021/10/19 03:02:40;;;;;;;3.40;3.10;;;;;;;19.28;62.61;101158.74;;;;-57
2021/10/19 03:05:41;;;;;;;3.35;3.05;;;;;;;19.28;62.61;101156.35;;;;-55
2021/10/19 03:08:40;;;;;;;3.32;3.02;;;;;;;19.27;62.68;101153.83;;;;-55
2021/10/19 03:11:40;;;;;;;3.39;3.09;;;;;;;19.26;62.69;101152.69;;;;-56
2021/10/19 03:14:40;;;;;;;3.13;2.83;;;;;;;19.27;62.69;101157.48;;;;-57
2021/10/19 03:17:40;;;;;;;3.28;2.98;;;;;;;19.26;62.69;101173.00;;;;-54
2021/10/19 03:20:40;;;;;;;2.96;2.75;;;;;;;19.25;62.70;101176.38;;;;-57
2021/10/19 03:23:40;;;;;;;3.43;3.13;;;;;;;19.25;62.71;101183.38;;;;-56
2021/10/19 03:26:40;;;;;;;3.28;2.98;;;;;;;19.25;62.66;101190.36;;;;-56
2021/10/19 03:29:40;;;;;;;3.19;2.91;;;;;;;19.24;62.67;101185.80;;;;-56
2021/10/19 03:32:40;;;;;;;3.30;3.00;;;;;;;19.24;62.66;101184.02;;;;-56
2021/10/19 03:35:40;;;;;;;3.13;2.86;;;;;;;19.23;62.70;101184.14;;;;-57
2021/10/19 03:38:40;;;;;;;3.17;2.91;;;;;;;19.22;62.71;101189.10;;;;-57
2021/10/19 03:41:40;;;;;;;3.25;2.95;;;;;;;19.22;62.73;101195.20;;;;-56
2021/10/19 03:44:40;;;;;;;3.01;2.71;;;;;;;19.22;62.67;101196.91;;;;-57
2021/10/19 03:47:40;;;;;;;2.97;2.77;;;;;;;19.22;62.71;101200.07;;;;-57
2021/10/19 03:50:40;;;;;;;3.11;2.81;;;;;;;19.22;62.69;101205.92;;;;-56
2021/10/19 03:53:41;;;;;;;3.41;3.11;;;;;;;19.21;62.73;101202.55;;;;-55
2021/10/19 03:56:40;;;;;;;3.36;3.06;;;;;;;19.21;62.68;101195.41;;;;-57
2021/10/19 03:59:40;;;;;;;3.11;2.87;;;;;;;19.21;62.76;101192.23;;;;-57
2021/10/19 04:02:40;;;;;;;3.30;3.00;;;;;;;19.20;62.71;101182.16;;;;-56
2021/10/19 04:05:41;;;;;;;3.31;3.01;;;;;;;19.20;62.74;101176.79;;;;-54
2021/10/19 04:08:40;;;;;;;3.17;2.87;;;;;;;19.19;62.72;101167.66;;;;-57
2021/10/19 04:11:40;;;;;;;3.21;2.91;;;;;;;19.19;62.70;101167.41;;;;-58
2021/10/19 04:14:40;;;;;;;2.93;2.65;;;;;;;19.18;62.72;101172.44;;;;-55
2021/10/19 04:17:40;;;;;;;3.27;2.97;;;;;;;19.18;62.72;101180.00;;;;-55
2021/10/19 04:20:40;;;;;;;2.93;2.73;;;;;;;19.17;62.73;101183.66;;;;-54
2021/10/19 04:23:40;;;;;;;3.17;2.87;;;;;;;19.16;62.72;101188.82;;;;-56
2021/10/19 04:26:40;;;;;;;3.10;2.81;;;;;;;19.17;62.79;101192.97;;;;-57
2021/10/19 04:29:40;;;;;;;3.16;2.91;;;;;;;19.17;62.77;101183.38;;;;-56
2021/10/19 04:32:40;;;;;;;3.01;2.81;;;;;;;19.17;62.81;101186.30;;;;-57
2021/10/19 04:35:40;;;;;;;3.27;2.97;;;;;;;19.16;62.78;101182.64;;;;-57
2021/10/19 04:38:40;;;;;;;3.10;2.80;;;;;;;19.17;62.75;101191.34;;;;-54
2021/10/19 04:41:44;;;;;;;3.17;2.88;;;;;;;19.16;62.82;101189.63;;;;-55
2021/10/19 04:44:40;;;;;;;2.79;2.59;;;;;;;19.17;62.80;101194.87;;;;-56
2021/10/19 04:47:40;;;;;;;3.14;2.85;;;;;;;19.17;62.83;101195.24;;;;-54
2021/10/19 04:50:40;;;;;;;2.91;2.69;;;;;;;19.18;62.76;101202.59;;;;-57
2021/10/19 04:53:40;;;;;;;3.05;2.85;;;;;;;19.21;62.80;101198.24;;;;-54
2021/10/19 04:56:40;;;;;;;2.97;2.71;;;;;;;19.22;62.82;101198.04;;;;-56
2021/10/19 04:59:40;;;;;;;3.07;2.77;;;;;;;19.24;62.79;101194.34;;;;-56
2021/10/19 05:02:40;;;;;;;2.83;2.63;;;;;;;19.26;62.79;101184.47;;;;-56
2021/10/19 05:05:40;;;;;;;2.88;2.68;;;;;;;19.28;62.85;101188.56;;;;-55
2021/10/19 05:08:40;;;;;;;2.89;2.69;;;;;;;19.30;62.88;101186.73;;;;-58
2021/10/19 05:11:40;;;;;;;2.80;2.60;;;;;;;19.33;62.87;101178.66;;;;-56
2021/10/19 05:14:40;;;;;;;2.79;2.59;;;;;;;19.36;62.82;101172.34;;;;-58
2021/10/19 05:17:40;;;;;;;3.10;2.79;;;;;;;19.37;62.81;101165.16;;;;-57
2021/10/19 05:20:40;;;;;;;2.72;2.52;;;;;;;19.40;62.80;101161.70;;;;-55
2021/10/19 05:23:40;;;;;;;2.83;2.63;;;;;;;19.42;62.80;101161.97;;;;-54
2021/10/19 05:26:40;;;;;;;2.90;2.59;;;;;;;19.42;62.80;101158.03;;;;-59
2021/10/19 05:29:40;;;;;;;3.86;3.56;;;;;;;19.45;62.83;101158.55;;;;-59
2021/10/19 05:32:40;;;;;;;2.68;2.48;;;;;;;19.46;62.81;101159.13;;;;-58
2021/10/19 05:35:40;;;;;;;2.77;2.57;;;;;;;19.47;62.83;101163.95;;;;-57
2021/10/19 05:38:40;;;;;;;2.75;2.55;;;;;;;19.47;62.76;101167.20;;;;-59
2021/10/19 05:41:40;;;;;;;2.67;2.47;;;;;;;19.48;62.82;101169.48;;;;-59
2021/10/19 05:44:40;;;;;;;2.70;2.50;;;;;;;19.48;62.78;101168.83;;;;-59
2021/10/19 05:47:41;;;;;;;3.26;2.96;;;;;;;19.50;62.73;101188.14;;;;-59
2021/10/19 05:50:40;;;;;;;3.69;3.39;;;;;;;19.51;62.70;101191.17;;;;-59
2021/10/19 05:53:40;;;;;;;2.79;2.59;;;;;;;19.51;62.71;101190.61;;;;-59
2021/10/19 05:56:40;;;;;;;2.71;2.51;;;;;;;19.51;62.69;101192.40;;;;-58
2021/10/19 05:59:40;;;;;;;2.63;2.43;;;;;;;19.51;62.69;101193.45;;;;-57
2021/10/19 06:02:40;;;;;;;2.62;2.42;;;;;;;19.51;62.75;101187.89;;;;-59
2021/10/19 06:05:41;;;;;;;2.63;2.43;;;;;;;19.51;62.76;101193.45;;;;-59
2021/10/19 06:08:40;;;;;;;2.64;2.44;;;;;;;19.51;62.73;101190.13;;;;-59
2021/10/19 06:11:40;;;;;;;2.63;2.43;;;;;;;19.52;62.70;101192.80;;;;-58
2021/10/19 06:14:40;;;;;;;2.70;2.50;;;;;;;19.51;62.72;101204.19;;;;-59
2021/10/19 06:17:40;;;;;;;2.50;2.30;;;;;;;19.52;62.75;101205.89;;;;-57
2021/10/19 06:20:40;;;;;;;2.83;2.60;;;;;;;19.50;62.76;101205.53;;;;-56
2021/10/19 06:23:40;;;;;;;2.49;2.29;;;;;;;19.51;62.79;101207.56;;;;-54
2021/10/19 06:26:40;;;;;;;2.53;2.33;;;;;;;19.51;62.77;101207.89;;;;-55
2021/10/19 06:29:40;;;;;;;2.71;2.51;;;;;;;19.50;62.79;101208.45;;;;-60
2021/10/19 06:32:40;;;;;;;2.69;2.49;;;;;;;19.50;62.81;101205.29;;;;-59
2021/10/19 06:35:41;;;;;;;2.62;2.42;;;;;;;19.50;62.76;101197.56;;;;-59
2021/10/19 06:38:40;;;;;;;2.71;2.51;;;;;;;19.49;62.81;101201.38;;;;-59
2021/10/19 06:41:40;;;;;;;2.77;2.57;;;;;;;19.49;62.76;101204.15;;;;-59
2021/10/19 06:44:40;;;;;;;2.77;2.57;;;;;;;19.49;62.82;101199.44;;;;-59
2021/10/19 06:47:40;;;;;;;2.79;2.59;;;;;;;19.49;62.72;101192.12;;;;-59
2021/10/19 06:50:40;;;;;;;3.01;2.76;;;;;;;19.48;62.83;101185.83;;;;-59
2021/10/19 06:53:40;;;;;;;2.79;2.53;;;;;;;19.48;62.82;101177.37;;;;-59
2021/10/19 06:56:40;;;;;;;2.60;2.40;;;;;;;19.48;62.76;101175.02;;;;-59
2021/10/19 06:59:40;;;;;;;2.70;2.50;;;;;;;19.49;62.79;101179.52;;;;-57
2021/10/19 07:02:40;;;;;;;2.73;2.53;;;;;;;19.48;62.75;101179.81;;;;-55
2021/10/19 07:05:40;;;;;;;2.95;2.51;;;;;;;19.48;62.80;101188.83;;;;-57
2021/10/19 07:08:40;;;;;;;2.70;2.50;;;;;;;19.47;62.77;101189.39;;;;-57
2021/10/19 07:11:40;;;;;;;2.72;2.52;;;;;;;19.47;62.73;101192.89;;;;-55
2021/10/19 07:14:40;;;;;;;2.81;2.61;;;;;;;19.47;62.74;101201.10;;;;-56
2021/10/19 07:17:40;;;;;;;2.63;2.41;;;;;;;19.46;62.68;101204.48;;;;-56
2021/10/19 07:20:40;;;;;;;2.69;2.49;;;;;;;19.46;62.68;101207.08;;;;-56
2021/10/19 07:23:40;;;;;;;2.50;2.30;;;;;;;19.45;62.76;101206.27;;;;-54
2021/10/19 07:26:40;;;;;;;2.72;2.52;;;;;;;19.45;62.66;101207.41;;;;-56
2021/10/19 07:29:41;;;;;;;2.75;2.55;;;;;;;19.44;62.75;101206.23;;;;-59
2021/10/19 07:32:40;;;;;;;5.35;2.83;;;;;;;19.42;62.73;101207.61;;;;-56
2021/10/19 07:35:40;;;;;;;6.60;5.12;;;;;;;19.34;61.46;101206.69;;;;-57
2021/10/19 07:38:40;;;;;;;7.07;5.75;;;;;;;19.26;60.92;101204.22;;;;-53
2021/10/19 07:41:40;;;;;;;8.07;7.16;;;;;;;19.21;60.54;101206.86;;;;-58
2021/10/19 07:44:40;;;;;;;7.11;6.41;;;;;;;19.16;60.46;101209.05;;;;-57
2021/10/19 07:47:40;;;;;;;6.21;5.61;;;;;;;19.19;60.83;101207.63;;;;-52
2021/10/19 07:50:44;;;;;;;7.43;5.29;;;;;;;19.22;61.20;101213.40;;;;-52
2021/10/19 07:53:40;;;;;;;5.93;4.97;;;;;;;19.26;61.34;101208.11;;;;-52
2021/10/19 07:56:41;;;;;;;5.23;4.60;;;;;;;19.29;61.52;101210.34;;;;-53
2021/10/19 07:59:40;;;;;;;5.84;4.41;;;;;;;19.34;61.55;101201.36;;;;-53
2021/10/19 08:02:41;;;;;;;5.80;4.13;;;;;;;19.39;61.60;101201.36;;;;-53
2021/10/19 08:05:42;;;;;;;4.60;4.04;;;;;;;19.41;61.64;101195.55;;;;-53
2021/10/19 08:08:40;;;;;;;4.49;4.02;;;;;;;19.45;61.75;101197.98;;;;-53
2021/10/19 08:11:40;;;;;;;4.75;3.92;;;;;;;19.47;61.73;101204.60;;;;-54
2021/10/19 08:14:40;;;;;;;5.90;4.13;;;;;;;19.52;62.33;101190.53;;;;-50
2021/10/19 08:17:40;;;;;;;5.43;3.95;;;;;;;19.54;62.15;101184.47;;;;-53
2021/10/19 08:20:40;;;;;;;5.43;3.80;;;;;;;19.55;60.38;101193.53;;;;-54
2021/10/19 08:23:40;;;;;;;5.06;3.87;;;;;;;19.63;61.79;101190.23;;;;-51
2021/10/19 08:26:40;;;;;;;6.17;3.73;;;;;;;19.68;61.94;101192.93;;;;-52
2021/10/19 08:29:40;;;;;;;7.22;3.80;;;;;;;19.72;62.20;101196.29;;;;-52
2021/10/19 08:32:40;;;;;;;4.06;3.58;;;;;;;19.77;62.24;101193.27;;;;-57
2021/10/19 08:35:40;;;;;;;5.16;3.65;;;;;;;19.82;62.66;101198.63;;;;-57
2021/10/19 08:38:41;;;;;;;4.49;3.43;;;;;;;19.85;62.63;101190.88;;;;-58
2021/10/19 08:41:40;;;;;;;5.10;3.40;;;;;;;19.89;62.58;101181.02;;;;-62
2021/10/19 08:44:41;;;;;;;4.11;3.53;;;;;;;19.92;62.74;101178.98;;;;-64
2021/10/19 08:47:40;;;;;;;8.06;3.53;;;;;;;19.97;62.98;101172.13;;;;-58
2021/10/19 08:50:40;;;;;;;4.67;3.40;;;;;;;19.99;62.91;101165.08;;;;-58
2021/10/19 08:53:40;;;;;;;6.50;3.45;;;;;;;20.02;62.99;101163.41;;;;-60
2021/10/19 08:56:40;;;;;;;3.99;3.27;;;;;;;20.04;62.87;101151.96;;;;-61
2021/10/19 08:59:40;;;;;;;4.21;3.37;;;;;;;20.07;62.81;101152.52;;;;-57
2021/10/19 09:02:40;;;;;;;4.57;3.47;;;;;;;20.08;62.99;101151.95;;;;-52
2021/10/19 09:05:40;;;;;;;3.69;3.25;;;;;;;20.10;62.88;101154.91;;;;-54
2021/10/19 09:08:40;;;;;;;4.15;3.31;;;;;;;20.12;62.96;101151.11;;;;-51
2021/10/19 09:11:40;;;;;;;3.61;3.20;;;;;;;20.12;62.89;101151.27;;;;-53
2021/10/19 09:14:44;;;;;;;3.67;3.24;;;;;;;20.14;62.84;101155.21;;;;-50
2021/10/19 09:17:41;;;;;;;4.57;3.05;;;;;;;20.15;62.67;101156.30;;;;-50
2021/10/19 09:20:40;;;;;;;4.45;3.22;;;;;;;20.16;62.54;101151.50;;;;-49
2021/10/19 09:23:43;;;;;;;4.66;3.12;;;;;;;20.18;62.64;101144.36;;;;-51
2021/10/19 09:26:40;;;;;;;7.17;3.29;;;;;;;20.17;62.61;101138.09;;;;-57
2021/10/19 09:29:40;;;;;;;3.51;3.19;;;;;;;20.18;62.61;101136.80;;;;-60
2021/10/19 09:32:40;;;;;;;6.85;3.13;;;;;;;20.17;62.58;101143.14;;;;-57
2021/10/19 09:35:40;;;;;;;5.77;3.06;;;;;;;20.20;62.58;101143.25;;;;-57
2021/10/19 09:38:40;;;;;;;6.25;3.22;;;;;;;20.19;62.15;101135.17;;;;-56
2021/10/19 09:41:40;;;;;;;4.71;3.46;;;;;;;20.18;62.25;101129.63;;;;-60
2021/10/19 09:44:40;;;;;;;6.15;3.65;;;;;;;20.18;62.39;101128.91;;;;-50
2021/10/19 09:47:40;;;;;;;7.13;3.07;;;;;;;20.18;62.31;101122.64;;;;-52
2021/10/19 09:50:41;;;;;;;6.19;3.31;;;;;;;20.18;62.34;101127.11;;;;-48
2021/10/19 09:53:40;;;;;;;4.37;3.27;;;;;;;20.18;62.31;101121.98;;;;-47
2021/10/19 09:56:40;;;;;;;4.58;3.23;;;;;;;20.18;62.34;101126.95;;;;-48
2021/10/19 09:59:40;;;;;;;7.59;4.21;;;;;;;20.18;62.35;101126.46;;;;-50
2021/10/19 10:02:40;;;;;;;4.19;3.08;;;;;;;20.19;62.36;101132.89;;;;-51
2021/10/19 10:05:40;;;;;;;3.75;3.34;;;;;;;20.18;62.32;101134.77;;;;-51
2021/10/19 10:08:41;;;;;;;4.82;3.28;;;;;;;20.20;62.45;101133.41;;;;-54
2021/10/19 10:11:41;;;;;;;4.95;3.13;;;;;;;20.18;62.24;101130.86;;;;-62
2021/10/19 10:14:40;;;;;;;4.97;3.34;;;;;;;20.19;62.29;101130.94;;;;-53
2021/10/19 10:17:40;;;;;;;4.73;2.90;;;;;;;20.18;62.25;101134.92;;;;-44
2021/10/19 10:20:40;;;;;;;6.39;3.03;;;;;;;20.18;62.24;101136.80;;;;-51
2021/10/19 10:23:42;;;;;;;5.13;3.20;;;;;;;20.18;62.20;101129.15;;;;-51
2021/10/19 10:26:41;;;;;;;4.34;3.39;;;;;;;20.18;62.29;101131.34;;;;-51
2021/10/19 10:29:40;;;;;;;7.91;2.98;;;;;;;20.18;62.31;101133.45;;;;-53
2021/10/19 10:32:40;;;;;;;4.91;3.23;;;;;;;20.19;62.58;101127.95;;;;-52
2021/10/19 10:35:40;;;;;;;4.11;3.06;;;;;;;20.19;62.30;101121.20;;;;-52
2021/10/19 10:38:40;;;;;;;4.19;2.90;;;;;;;20.18;62.29;101119.70;;;;-52
2021/10/19 10:41:40;;;;;;;3.29;2.81;;;;;;;20.17;62.25;101117.64;;;;-57
2021/10/19 10:44:40;;;;;;;4.50;2.96;;;;;;;20.16;62.24;101112.19;;;;-57
2021/10/19 10:47:40;;;;;;;3.65;2.99;;;;;;;20.15;62.20;101115.69;;;;-57
2021/10/19 10:50:40;;;;;;;3.19;2.89;;;;;;;20.15;62.22;101110.97;;;;-58
2021/10/19 10:53:40;;;;;;;3.12;2.81;;;;;;;20.14;62.19;101115.33;;;;-58
2021/10/19 10:56:40;;;;;;;4.02;2.77;;;;;;;20.13;62.25;101102.45;;;;-59
2021/10/19 10:59:40;;;;;;;2.97;2.75;;;;;;;20.13;62.18;101102.61;;;;-59
2021/10/19 11:02:40;;;;;;;3.73;2.76;;;;;;;20.12;62.22;101103.19;;;;-59
2021/10/19 11:05:40;;;;;;;3.22;2.84;;;;;;;20.11;62.15;101097.48;;;;-59
2021/10/19 11:08:40;;;;;;;3.02;2.69;;;;;;;20.10;62.17;101102.74;;;;-58
2021/10/19 11:11:40;;;;;;;3.01;2.72;;;;;;;20.09;62.21;101101.61;;;;-57
2021/10/19 11:14:40;;;;;;;3.42;2.91;;;;;;;20.09;62.17;101098.59;;;;-57
2021/10/19 11:17:40;;;;;;;2.87;2.57;;;;;;;20.08;62.15;101100.11;;;;-57
2021/10/19 11:20:40;;;;;;;3.12;2.78;;;;;;;20.08;62.19;101100.03;;;;-57
2021/10/19 11:23:40;;;;;;;3.21;2.85;;;;;;;20.08;62.19;101092.22;;;;-53
2021/10/19 11:26:41;;;;;;;3.46;3.03;;;;;;;20.08;62.17;101088.80;;;;-57
2021/10/19 11:29:41;;;;;;;2.76;2.49;;;;;;;20.07;62.13;101090.59;;;;-57
2021/10/19 11:32:40;;;;;;;3.37;2.74;;;;;;;20.07;62.22;101084.25;;;;-57
2021/10/19 11:35:40;;;;;;;3.31;3.01;;;;;;;20.07;62.11;101079.04;;;;-58
2021/10/19 11:38:40;;;;;;;4.31;3.01;;;;;;;20.07;62.13;101076.68;;;;-59
2021/10/19 11:41:40;;;;;;;3.09;2.66;;;;;;;20.07;62.13;101073.42;;;;-59
2021/10/19 11:44:40;;;;;;;3.15;2.80;;;;;;;20.08;62.13;101065.29;;;;-52
2021/10/19 11:47:40;;;;;;;2.78;2.55;;;;;;;20.07;62.15;101056.17;;;;-52
2021/10/19 11:50:40;;;;;;;4.19;2.70;;;;;;;20.07;62.12;101054.88;;;;-52
2021/10/19 11:53:40;;;;;;;3.59;2.77;;;;;;;20.08;62.26;101051.94;;;;-51
2021/10/19 11:56:40;;;;;;;5.33;2.69;;;;;;;20.09;62.30;101061.73;;;;-50
2021/10/19 11:59:40;;;;;;;3.43;2.66;;;;;;;20.09;62.26;101053.44;;;;-48
2021/10/19 12:02:40;;;;;;;4.03;2.91;;;;;;;20.10;62.22;101046.84;;;;-54
2021/10/19 12:05:40;;;;;;;3.26;2.51;;;;;;;20.12;62.19;101044.10;;;;-53
2021/10/19 12:08:40;;;;;;;3.00;2.70;;;;;;;20.13;62.22;101045.92;;;;-46
2021/10/19 12:11:40;;;;;;;3.99;2.69;;;;;;;20.13;62.31;101035.91;;;;-48
2021/10/19 12:14:40;;;;;;;3.06;2.53;;;;;;;20.16;62.43;101027.72;;;;-48
2021/10/19 12:17:40;;;;;;;3.63;2.73;;;;;;;20.16;62.41;101021.37;;;;-49
2021/10/19 12:20:40;;;;;;;3.51;2.74;;;;;;;20.16;62.39;101014.94;;;;-51
2021/10/19 12:23:40;;;;;;;3.03;2.68;;;;;;;20.17;62.39;101017.05;;;;-50
2021/10/19 12:26:42;;;;;;;3.88;2.78;;;;;;;20.17;62.38;101010.70;;;;-50
2021/10/19 12:29:40;;;;;;;2.97;2.57;;;;;;;20.18;62.41;101010.33;;;;-50
2021/10/19 12:32:40;;;;;;;2.91;2.63;;;;;;;20.19;62.42;101007.59;;;;-48
2021/10/19 12:35:40;;;;;;;3.35;2.72;;;;;;;20.19;62.41;101000.59;;;;-49
2021/10/19 12:38:40;;;;;;;2.92;2.67;;;;;;;20.20;62.45;101002.55;;;;-53
2021/10/19 12:41:40;;;;;;;2.75;2.48;;;;;;;20.20;62.41;101000.09;;;;-53
2021/10/19 12:44:40;;;;;;;2.95;2.60;;;;;;;20.21;62.41;100998.50;;;;-59
2021/10/19 12:47:40;;;;;;;2.90;2.61;;;;;;;20.20;62.43;100998.06;;;;-47
2021/10/19 12:50:40;;;;;;;4.69;2.96;;;;;;;20.21;62.44;100988.57;;;;-57
2021/10/19 12:53:40;;;;;;;3.09;2.80;;;;;;;20.22;62.49;100986.53;;;;-49
2021/10/19 12:56:41;;;;;;;3.49;3.19;;;;;;;20.22;62.48;100982.06;;;;-53
2021/10/19 12:59:40;;;;;;;3.89;3.11;;;;;;;20.24;62.47;100984.36;;;;-53
2021/10/19 13:02:41;;;;;;;4.83;2.58;;;;;;;20.23;62.53;100983.22;;;;-63
2021/10/19 13:05:42;;;;;;;3.73;2.63;;;;;;;20.25;62.64;100982.44;;;;-51
2021/10/19 13:08:40;;;;;;;2.67;2.47;;;;;;;20.25;62.44;100981.27;;;;-51
2021/10/19 13:11:40;;;;;;;3.20;2.70;;;;;;;20.23;62.42;100971.18;;;;-52
2021/10/19 13:14:40;;;;;;;2.95;2.41;;;;;;;20.23;62.36;100968.95;;;;-60
2021/10/19 13:17:40;;;;;;;3.17;2.81;;;;;;;20.23;62.35;100966.67;;;;-46
2021/10/19 13:20:40;;;;;;;2.98;2.45;;;;;;;20.22;62.34;100968.63;;;;-46
2021/10/19 13:23:40;;;;;;;6.00;2.85;;;;;;;20.22;62.50;100965.62;;;;-59
2021/10/19 13:26:41;;;;;;;3.23;2.90;;;;;;;20.23;62.49;100958.78;;;;-57
2021/10/19 13:29:40;;;;;;;5.54;2.58;;;;;;;20.24;62.50;100959.30;;;;-59
2021/10/19 13:32:40;;;;;;;4.68;2.79;;;;;;;20.24;62.53;100954.25;;;;-52
2021/10/19 13:35:40;;;;;;;5.19;2.83;;;;;;;20.24;62.49;100949.12;;;;-47
2021/10/19 13:38:40;;;;;;;2.80;2.53;;;;;;;20.26;62.50;100945.41;;;;-51
2021/10/19 13:41:41;;;;;;;3.38;2.71;;;;;;;20.24;62.52;100939.84;;;;-51
2021/10/19 13:44:40;;;;;;;4.45;2.60;;;;;;;20.24;62.48;100941.31;;;;-51
2021/10/19 13:47:40;;;;;;;3.03;2.47;;;;;;;20.23;62.41;100940.62;;;;-51
2021/10/19 13:50:40;;;;;;;2.73;2.46;;;;;;;20.22;62.44;100941.85;;;;-51
2021/10/19 13:53:40;;;;;;;2.78;2.50;;;;;;;20.21;62.43;100942.34;;;;-51
2021/10/19 13:56:40;;;;;;;2.56;2.36;;;;;;;20.21;62.43;100939.30;;;;-53
2021/10/19 13:59:40;;;;;;;3.99;2.73;;;;;;;20.20;62.51;100937.77;;;;-51
2021/10/19 14:02:40;;;;;;;3.42;2.56;;;;;;;20.22;62.36;100932.41;;;;-57
2021/10/19 14:05:41;;;;;;;6.11;2.83;;;;;;;20.23;61.95;100928.37;;;;-52
2021/10/19 14:08:42;;;;;;;4.90;2.85;;;;;;;20.23;61.89;100924.92;;;;-52
2021/10/19 14:11:40;;;;;;;5.37;2.82;;;;;;;20.22;62.11;100924.11;;;;-53
2021/10/19 14:14:40;;;;;;;5.16;2.70;;;;;;;20.22;62.24;100925.33;;;;-53
2021/10/19 14:17:40;;;;;;;5.61;2.76;;;;;;;20.21;62.23;100917.66;;;;-52
2021/10/19 14:20:40;;;;;;;5.85;2.78;;;;;;;20.20;62.27;100918.31;;;;-52
2021/10/19 14:23:40;;;;;;;4.68;2.61;;;;;;;20.19;62.28;100915.84;;;;-53
2021/10/19 14:26:40;;;;;;;5.01;2.75;;;;;;;20.19;62.28;100911.23;;;;-53
2021/10/19 14:29:41;;;;;;;8.49;3.27;;;;;;;20.19;62.41;100905.70;;;;-49
2021/10/19 14:32:40;;;;;;;5.63;2.83;;;;;;;20.19;62.22;100903.64;;;;-51
2021/10/19 14:35:40;;;;;;;4.23;2.75;;;;;;;20.21;62.21;100902.84;;;;-50
2021/10/19 14:38:40;;;;;;;6.12;2.75;;;;;;;20.21;62.30;100900.24;;;;-52
2021/10/19 14:41:40;;;;;;;6.27;2.93;;;;;;;20.21;62.26;100899.02;;;;-53
2021/10/19 14:44:40;;;;;;;4.06;2.76;;;;;;;20.22;62.31;100898.80;;;;-54
2021/10/19 14:47:40;;;;;;;3.10;2.77;;;;;;;20.22;62.31;100896.20;;;;-54
2021/10/19 14:50:40;;;;;;;8.20;2.93;;;;;;;20.24;62.25;100888.90;;;;-47
2021/10/19 14:53:40;;;;;;;6.43;2.70;;;;;;;20.26;62.50;100888.10;;;;-51
2021/10/19 14:56:40;;;;;;;3.61;2.73;;;;;;;20.26;62.52;100885.91;;;;-49
2021/10/19 14:59:40;;;;;;;6.33;2.83;;;;;;;20.27;62.50;100890.38;;;;-49
2021/10/19 15:02:40;;;;;;;3.90;2.62;;;;;;;20.27;62.52;100882.80;;;;-49
2021/10/19 15:05:40;;;;;;;3.90;2.55;;;;;;;20.28;62.57;100888.05;;;;-52
2021/10/19 15:08:40;;;;;;;3.60;2.53;;;;;;;20.29;62.63;100889.58;;;;-50
2021/10/19 15:11:40;;;;;;;6.76;2.79;;;;;;;20.32;62.62;100887.76;;;;-50
2021/10/19 15:14:40;;;;;;;10.31;2.87;;;;;;;20.31;63.02;100882.12;;;;-51
2021/10/19 15:17:40;;;;;;;4.15;2.89;;;;;;;20.32;62.48;100882.06;;;;-51
2021/10/19 15:20:40;;;;;;;9.37;3.01;;;;;;;20.33;62.55;100882.62;;;;-49
2021/10/19 15:23:40;;;;;;;4.82;2.86;;;;;;;20.33;62.46;100885.31;;;;-49
2021/10/19 15:26:40;;;;;;;5.71;2.74;;;;;;;20.32;62.61;100885.80;;;;-49
2021/10/19 15:29:40;;;;;;;5.92;2.87;;;;;;;20.30;62.07;100876.75;;;;-52
2021/10/19 15:32:40;;;;;;;5.48;3.09;;;;;;;20.32;61.69;100874.25;;;;-53
2021/10/19 15:35:40;;;;;;;5.43;3.00;;;;;;;20.29;61.43;100870.86;;;;-50
2021/10/19 15:38:40;;;;;;;5.87;2.81;;;;;;;20.29;60.63;100865.81;;;;-50
2021/10/19 15:41:40;;;;;;;5.00;2.78;;;;;;;20.30;60.79;100865.11;;;;-53
2021/10/19 15:44:40;;;;;;;8.21;3.03;;;;;;;20.30;61.34;100863.72;;;;-48
2021/10/19 15:47:40;;;;;;;4.67;3.06;;;;;;;20.32;61.52;100858.45;;;;-52
2021/10/19 15:50:40;;;;;;;3.93;2.83;;;;;;;20.33;61.57;100863.82;;;;-52
2021/10/19 15:53:40;;;;;;;5.23;3.05;;;;;;;20.32;61.52;100860.00;;;;-51
2021/10/19 15:56:40;;;;;;;4.16;2.95;;;;;;;20.33;61.40;100857.23;;;;-49
2021/10/19 15:59:40;;;;;;;3.21;2.62;;;;;;;20.33;61.59;100856.49;;;;-50
2021/10/19 16:02:45;;;;;;;4.93;2.91;;;;;;;20.33;61.76;100857.14;;;;-49
2021/10/19 16:05:42;;;;;;;7.54;2.97;;;;;;;20.34;61.85;100861.81;;;;-50
2021/10/19 16:08:40;;;;;;;4.72;3.05;;;;;;;20.35;61.94;100861.23;;;;-50
2021/10/19 16:11:40;;;;;;;3.76;2.84;;;;;;;20.36;62.06;100862.16;;;;-49
2021/10/19 16:14:40;;;;;;;5.27;2.90;;;;;;;20.36;62.14;100861.02;;;;-51
2021/10/19 16:17:40;;;;;;;3.41;2.66;;;;;;;20.37;62.13;100857.91;;;;-49
2021/10/19 16:20:40;;;;;;;3.17;2.50;;;;;;;20.37;62.18;100855.97;;;;-51
2021/10/19 16:23:40;;;;;;;3.52;2.71;;;;;;;20.38;62.19;100850.61;;;;-49
2021/10/19 16:26:41;;;;;;;3.86;2.67;;;;;;;20.38;62.21;100849.31;;;;-48
2021/10/19 16:29:40;;;;;;;3.84;2.69;;;;;;;20.39;62.25;100848.41;;;;-48
2021/10/19 16:32:40;;;;;;;6.12;2.90;;;;;;;20.40;62.26;100845.99;;;;-47
2021/10/19 16:35:40;;;;;;;4.31;2.69;;;;;;;20.41;62.32;100841.11;;;;-47
2021/10/19 16:38:40;;;;;;;3.40;2.63;;;;;;;20.41;62.36;100846.80;;;;-47
2021/10/19 16:41:40;;;;;;;3.75;2.87;;;;;;;20.43;62.32;100846.91;;;;-50
2021/10/19 16:44:40;;;;;;;3.60;2.76;;;;;;;20.43;62.37;100843.32;;;;-52